sensor_id;sensor_type;location;lat;lon;timestamp;P1;durP1;ratioP1;P2;durP2;ratioP2
6868;SDS011;3473;42.604;23.496;2022-10-13T00:01:30;1.70;;;1.13;;
6868;SDS011;3473;42.604;23.496;2022-10-13T00:03:01;1.20;;;1.10;;
6868;SDS011;3473;42.604;23.496;2022-10-13T00:04:33;1.07;;;0.97;;
6868;SDS011;3473;42.604;23.496;2022-10-13T00:06:05;1.27;;;0.53;;
6868;SDS011;3473;42.604;23.496;2022-10-13T00:07:37;1.17;;;1.07;;
6868;SDS011;3473;42.604;23.496;2022-10-13T00:09:09;1.83;;;0.87;;
6868;SDS011;3473;42.604;23.496;2022-10-13T00:10:40;3.07;;;1.20;;
6868;SDS011;3473;42.604;23.496;2022-10-13T00:12:12;4.70;;;1.20;;
6868;SDS011;3473;42.604;23.496;2022-10-13T00:13:45;1.60;;;1.20;;
6868;SDS011;3473;42.604;23.496;2022-10-13T00:15:17;1.63;;;1.37;;
6868;SDS011;3473;42.604;23.496;2022-10-13T00:16:48;1.80;;;0.83;;
6868;SDS011;3473;42.604;23.496;2022-10-13T00:18:20;1.67;;;1.30;;
6868;SDS011;3473;42.604;23.496;2022-10-13T00:19:50;2.40;;;1.27;;
6868;SDS011;3473;42.604;23.496;2022-10-13T00:21:22;2.00;;;1.23;;
6868;SDS011;3473;42.604;23.496;2022-10-13T00:22:54;2.50;;;1.73;;
6868;SDS011;3473;42.604;23.496;2022-10-13T00:24:26;1.67;;;1.17;;
6868;SDS011;3473;42.604;23.496;2022-10-13T00:25:57;1.13;;;0.93;;
6868;SDS011;3473;42.604;23.496;2022-10-13T00:27:28;1.37;;;1.23;;
6868;SDS011;3473;42.604;23.496;2022-10-13T00:29:01;1.90;;;1.20;;
6868;SDS011;3473;42.604;23.496;2022-10-13T00:30:32;2.07;;;1.40;;
6868;SDS011;3473;42.604;23.496;2022-10-13T00:32:03;1.27;;;0.77;;
6868;SDS011;3473;42.604;23.496;2022-10-13T00:33:34;1.83;;;1.20;;
6868;SDS011;3473;42.604;23.496;2022-10-13T00:35:05;2.00;;;1.30;;
6868;SDS011;3473;42.604;23.496;2022-10-13T00:36:37;2.80;;;1.50;;
6868;SDS011;3473;42.604;23.496;2022-10-13T00:38:08;2.17;;;1.30;;
6868;SDS011;3473;42.604;23.496;2022-10-13T00:39:39;0.63;;;0.63;;
6868;SDS011;3473;42.604;23.496;2022-10-13T00:41:10;4.23;;;1.60;;
6868;SDS011;3473;42.604;23.496;2022-10-13T00:42:42;2.33;;;1.30;;
6868;SDS011;3473;42.604;23.496;2022-10-13T00:46:04;1.73;;;1.27;;
6868;SDS011;3473;42.604;23.496;2022-10-13T00:47:37;2.37;;;1.33;;
6868;SDS011;3473;42.604;23.496;2022-10-13T00:49:10;1.90;;;1.00;;
6868;SDS011;3473;42.604;23.496;2022-10-13T00:50:43;1.57;;;1.10;;
6868;SDS011;3473;42.604;23.496;2022-10-13T00:52:14;0.83;;;0.70;;
6868;SDS011;3473;42.604;23.496;2022-10-13T00:53:46;1.07;;;0.83;;
6868;SDS011;3473;42.604;23.496;2022-10-13T00:55:19;1.00;;;0.93;;
6868;SDS011;3473;42.604;23.496;2022-10-13T00:56:53;2.37;;;0.97;;
6868;SDS011;3473;42.604;23.496;2022-10-13T00:58:24;2.40;;;1.03;;
6868;SDS011;3473;42.604;23.496;2022-10-13T01:00:00;1.60;;;1.20;;
6868;SDS011;3473;42.604;23.496;2022-10-13T01:01:34;3.30;;;1.43;;
6868;SDS011;3473;42.604;23.496;2022-10-13T01:03:07;2.07;;;1.10;;
6868;SDS011;3473;42.604;23.496;2022-10-13T01:04:39;1.97;;;1.30;;
6868;SDS011;3473;42.604;23.496;2022-10-13T01:06:11;1.37;;;1.10;;
6868;SDS011;3473;42.604;23.496;2022-10-13T01:07:43;2.20;;;1.20;;
6868;SDS011;3473;42.604;23.496;2022-10-13T01:09:17;0.67;;;0.67;;
6868;SDS011;3473;42.604;23.496;2022-10-13T01:10:51;1.50;;;1.20;;
6868;SDS011;3473;42.604;23.496;2022-10-13T01:12:28;0.97;;;0.70;;
6868;SDS011;3473;42.604;23.496;2022-10-13T01:14:09;2.73;;;1.37;;
6868;SDS011;3473;42.604;23.496;2022-10-13T01:15:44;2.80;;;1.27;;
6868;SDS011;3473;42.604;23.496;2022-10-13T01:17:22;0.70;;;0.70;;
6868;SDS011;3473;42.604;23.496;2022-10-13T01:18:59;1.23;;;0.83;;
6868;SDS011;3473;42.604;23.496;2022-10-13T01:22:30;2.27;;;1.53;;
6868;SDS011;3473;42.604;23.496;2022-10-13T01:24:16;1.07;;;0.93;;
6868;SDS011;3473;42.604;23.496;2022-10-13T01:25:57;1.47;;;1.10;;
6868;SDS011;3473;42.604;23.496;2022-10-13T01:27:50;2.30;;;1.13;;
6868;SDS011;3473;42.604;23.496;2022-10-13T01:31:11;1.60;;;1.00;;
6868;SDS011;3473;42.604;23.496;2022-10-13T01:32:56;2.23;;;1.03;;
6868;SDS011;3473;42.604;23.496;2022-10-13T01:34:32;2.30;;;1.27;;
6868;SDS011;3473;42.604;23.496;2022-10-13T01:36:05;3.53;;;1.60;;
6868;SDS011;3473;42.604;23.496;2022-10-13T01:37:39;1.53;;;1.20;;
6868;SDS011;3473;42.604;23.496;2022-10-13T01:39:14;1.43;;;1.33;;
6868;SDS011;3473;42.604;23.496;2022-10-13T01:40:50;2.00;;;1.23;;
6868;SDS011;3473;42.604;23.496;2022-10-13T01:42:23;1.70;;;1.23;;
6868;SDS011;3473;42.604;23.496;2022-10-13T01:43:59;2.33;;;1.07;;
6868;SDS011;3473;42.604;23.496;2022-10-13T01:45:34;1.53;;;1.10;;
6868;SDS011;3473;42.604;23.496;2022-10-13T01:47:10;2.33;;;1.73;;
6868;SDS011;3473;42.604;23.496;2022-10-13T01:48:43;2.77;;;1.40;;
6868;SDS011;3473;42.604;23.496;2022-10-13T01:50:15;3.10;;;1.17;;
6868;SDS011;3473;42.604;23.496;2022-10-13T01:51:47;3.23;;;1.23;;
6868;SDS011;3473;42.604;23.496;2022-10-13T01:53:19;3.33;;;1.30;;
6868;SDS011;3473;42.604;23.496;2022-10-13T01:54:51;2.40;;;1.53;;
6868;SDS011;3473;42.604;23.496;2022-10-13T01:56:22;3.47;;;1.50;;
6868;SDS011;3473;42.604;23.496;2022-10-13T01:57:54;2.20;;;0.83;;
6868;SDS011;3473;42.604;23.496;2022-10-13T01:59:26;1.93;;;1.20;;
6868;SDS011;3473;42.604;23.496;2022-10-13T02:01:03;2.83;;;1.83;;
6868;SDS011;3473;42.604;23.496;2022-10-13T02:02:38;1.80;;;1.03;;
6868;SDS011;3473;42.604;23.496;2022-10-13T02:04:16;2.43;;;1.40;;
6868;SDS011;3473;42.604;23.496;2022-10-13T02:05:52;3.00;;;1.77;;
6868;SDS011;3473;42.604;23.496;2022-10-13T02:07:27;4.10;;;1.50;;
6868;SDS011;3473;42.604;23.496;2022-10-13T02:09:01;2.00;;;1.43;;
6868;SDS011;3473;42.604;23.496;2022-10-13T02:10:33;2.60;;;1.20;;
6868;SDS011;3473;42.604;23.496;2022-10-13T02:12:08;3.63;;;1.47;;
6868;SDS011;3473;42.604;23.496;2022-10-13T02:13:42;4.37;;;1.77;;
6868;SDS011;3473;42.604;23.496;2022-10-13T02:15:15;2.93;;;1.70;;
6868;SDS011;3473;42.604;23.496;2022-10-13T02:16:48;2.67;;;1.67;;
6868;SDS011;3473;42.604;23.496;2022-10-13T02:18:22;7.27;;;2.07;;
6868;SDS011;3473;42.604;23.496;2022-10-13T02:19:56;2.17;;;1.27;;
6868;SDS011;3473;42.604;23.496;2022-10-13T02:21:28;3.47;;;1.10;;
6868;SDS011;3473;42.604;23.496;2022-10-13T02:23:00;7.83;;;1.40;;
6868;SDS011;3473;42.604;23.496;2022-10-13T02:24:32;2.60;;;1.63;;
6868;SDS011;3473;42.604;23.496;2022-10-13T02:26:04;2.73;;;1.70;;
6868;SDS011;3473;42.604;23.496;2022-10-13T02:27:36;1.60;;;1.07;;
6868;SDS011;3473;42.604;23.496;2022-10-13T02:29:07;6.73;;;1.70;;
6868;SDS011;3473;42.604;23.496;2022-10-13T02:30:39;4.97;;;1.97;;
6868;SDS011;3473;42.604;23.496;2022-10-13T02:32:11;2.57;;;1.53;;
6868;SDS011;3473;42.604;23.496;2022-10-13T02:33:42;1.80;;;1.20;;
6868;SDS011;3473;42.604;23.496;2022-10-13T02:35:14;2.00;;;1.30;;
6868;SDS011;3473;42.604;23.496;2022-10-13T02:36:45;2.43;;;1.57;;
6868;SDS011;3473;42.604;23.496;2022-10-13T02:38:17;1.97;;;1.20;;
6868;SDS011;3473;42.604;23.496;2022-10-13T02:39:49;2.33;;;1.17;;
6868;SDS011;3473;42.604;23.496;2022-10-13T02:41:20;1.57;;;1.47;;
6868;SDS011;3473;42.604;23.496;2022-10-13T02:42:51;1.60;;;1.20;;
6868;SDS011;3473;42.604;23.496;2022-10-13T02:44:22;6.47;;;2.00;;
6868;SDS011;3473;42.604;23.496;2022-10-13T02:45:54;3.37;;;1.57;;
6868;SDS011;3473;42.604;23.496;2022-10-13T02:47:25;2.70;;;1.77;;
6868;SDS011;3473;42.604;23.496;2022-10-13T02:48:57;1.10;;;0.87;;
6868;SDS011;3473;42.604;23.496;2022-10-13T02:50:28;2.10;;;1.60;;
6868;SDS011;3473;42.604;23.496;2022-10-13T02:52:01;1.70;;;1.30;;
6868;SDS011;3473;42.604;23.496;2022-10-13T02:53:32;4.17;;;1.67;;
6868;SDS011;3473;42.604;23.496;2022-10-13T02:55:04;3.30;;;1.97;;
6868;SDS011;3473;42.604;23.496;2022-10-13T02:56:35;1.53;;;1.00;;
6868;SDS011;3473;42.604;23.496;2022-10-13T02:58:06;4.83;;;1.53;;
6868;SDS011;3473;42.604;23.496;2022-10-13T02:59:38;2.63;;;1.80;;
6868;SDS011;3473;42.604;23.496;2022-10-13T03:01:10;3.13;;;1.40;;
6868;SDS011;3473;42.604;23.496;2022-10-13T03:02:42;2.17;;;1.33;;
6868;SDS011;3473;42.604;23.496;2022-10-13T03:04:15;1.30;;;1.20;;
6868;SDS011;3473;42.604;23.496;2022-10-13T03:05:46;3.57;;;1.60;;
6868;SDS011;3473;42.604;23.496;2022-10-13T03:07:18;2.97;;;1.90;;
6868;SDS011;3473;42.604;23.496;2022-10-13T03:08:50;2.30;;;1.17;;
6868;SDS011;3473;42.604;23.496;2022-10-13T03:10:20;2.53;;;1.40;;
6868;SDS011;3473;42.604;23.496;2022-10-13T03:11:51;2.17;;;1.20;;
6868;SDS011;3473;42.604;23.496;2022-10-13T03:13:22;4.80;;;2.07;;
6868;SDS011;3473;42.604;23.496;2022-10-13T03:14:53;2.00;;;1.60;;
6868;SDS011;3473;42.604;23.496;2022-10-13T03:16:25;1.10;;;1.00;;
6868;SDS011;3473;42.604;23.496;2022-10-13T03:17:56;3.43;;;1.47;;
6868;SDS011;3473;42.604;23.496;2022-10-13T03:19:29;2.93;;;1.47;;
6868;SDS011;3473;42.604;23.496;2022-10-13T03:21:02;5.77;;;1.80;;
6868;SDS011;3473;42.604;23.496;2022-10-13T03:22:34;2.00;;;1.80;;
6868;SDS011;3473;42.604;23.496;2022-10-13T03:24:04;0.80;;;0.70;;
6868;SDS011;3473;42.604;23.496;2022-10-13T03:25:36;1.50;;;1.30;;
6868;SDS011;3473;42.604;23.496;2022-10-13T03:27:07;2.67;;;1.30;;
6868;SDS011;3473;42.604;23.496;2022-10-13T03:28:39;3.57;;;1.83;;
6868;SDS011;3473;42.604;23.496;2022-10-13T03:30:10;4.43;;;1.73;;
6868;SDS011;3473;42.604;23.496;2022-10-13T03:31:42;3.40;;;1.63;;
6868;SDS011;3473;42.604;23.496;2022-10-13T03:33:13;3.30;;;1.37;;
6868;SDS011;3473;42.604;23.496;2022-10-13T03:34:45;2.00;;;1.37;;
6868;SDS011;3473;42.604;23.496;2022-10-13T03:36:17;2.93;;;1.80;;
6868;SDS011;3473;42.604;23.496;2022-10-13T03:37:48;6.40;;;1.90;;
6868;SDS011;3473;42.604;23.496;2022-10-13T03:39:20;4.57;;;1.80;;
6868;SDS011;3473;42.604;23.496;2022-10-13T03:40:52;2.97;;;1.63;;
6868;SDS011;3473;42.604;23.496;2022-10-13T03:42:23;1.90;;;1.40;;
6868;SDS011;3473;42.604;23.496;2022-10-13T03:43:55;3.87;;;1.90;;
6868;SDS011;3473;42.604;23.496;2022-10-13T03:45:26;3.33;;;1.43;;
6868;SDS011;3473;42.604;23.496;2022-10-13T03:47:00;5.07;;;2.03;;
6868;SDS011;3473;42.604;23.496;2022-10-13T03:48:32;2.87;;;1.33;;
6868;SDS011;3473;42.604;23.496;2022-10-13T03:50:04;3.03;;;1.70;;
6868;SDS011;3473;42.604;23.496;2022-10-13T03:51:36;2.47;;;1.43;;
6868;SDS011;3473;42.604;23.496;2022-10-13T03:53:07;3.07;;;1.57;;
6868;SDS011;3473;42.604;23.496;2022-10-13T03:54:41;3.03;;;2.07;;
6868;SDS011;3473;42.604;23.496;2022-10-13T03:56:13;5.40;;;2.00;;
6868;SDS011;3473;42.604;23.496;2022-10-13T03:57:45;3.60;;;1.57;;
6868;SDS011;3473;42.604;23.496;2022-10-13T03:59:17;1.77;;;1.40;;
6868;SDS011;3473;42.604;23.496;2022-10-13T04:00:48;4.17;;;1.77;;
6868;SDS011;3473;42.604;23.496;2022-10-13T04:02:20;4.13;;;2.10;;
6868;SDS011;3473;42.604;23.496;2022-10-13T04:03:52;3.20;;;1.90;;
6868;SDS011;3473;42.604;23.496;2022-10-13T04:05:26;1.73;;;1.60;;
6868;SDS011;3473;42.604;23.496;2022-10-13T04:06:57;3.87;;;1.80;;
6868;SDS011;3473;42.604;23.496;2022-10-13T04:08:29;2.77;;;1.50;;
6868;SDS011;3473;42.604;23.496;2022-10-13T04:10:01;6.67;;;2.17;;
6868;SDS011;3473;42.604;23.496;2022-10-13T04:11:32;5.63;;;2.70;;
6868;SDS011;3473;42.604;23.496;2022-10-13T04:13:04;2.93;;;1.60;;
6868;SDS011;3473;42.604;23.496;2022-10-13T04:14:36;2.60;;;1.33;;
6868;SDS011;3473;42.604;23.496;2022-10-13T04:16:08;2.27;;;1.53;;
6868;SDS011;3473;42.604;23.496;2022-10-13T04:17:42;5.27;;;2.57;;
6868;SDS011;3473;42.604;23.496;2022-10-13T04:19:13;3.47;;;1.70;;
6868;SDS011;3473;42.604;23.496;2022-10-13T04:20:47;3.73;;;1.33;;
6868;SDS011;3473;42.604;23.496;2022-10-13T04:22:17;4.00;;;1.80;;
6868;SDS011;3473;42.604;23.496;2022-10-13T04:23:49;4.87;;;2.13;;
6868;SDS011;3473;42.604;23.496;2022-10-13T04:25:19;3.83;;;2.40;;
6868;SDS011;3473;42.604;23.496;2022-10-13T04:26:51;4.93;;;1.90;;
6868;SDS011;3473;42.604;23.496;2022-10-13T04:28:22;3.67;;;1.80;;
6868;SDS011;3473;42.604;23.496;2022-10-13T04:29:54;3.00;;;1.80;;
6868;SDS011;3473;42.604;23.496;2022-10-13T04:31:27;2.87;;;1.77;;
6868;SDS011;3473;42.604;23.496;2022-10-13T04:32:59;3.07;;;1.90;;
6868;SDS011;3473;42.604;23.496;2022-10-13T04:34:30;4.60;;;2.17;;
6868;SDS011;3473;42.604;23.496;2022-10-13T04:36:04;5.03;;;1.67;;
6868;SDS011;3473;42.604;23.496;2022-10-13T04:37:34;6.03;;;2.30;;
6868;SDS011;3473;42.604;23.496;2022-10-13T04:39:06;3.60;;;2.10;;
6868;SDS011;3473;42.604;23.496;2022-10-13T04:40:37;6.37;;;2.00;;
6868;SDS011;3473;42.604;23.496;2022-10-13T04:42:09;7.07;;;2.13;;
6868;SDS011;3473;42.604;23.496;2022-10-13T04:43:40;2.93;;;1.60;;
6868;SDS011;3473;42.604;23.496;2022-10-13T04:45:12;5.33;;;2.00;;
6868;SDS011;3473;42.604;23.496;2022-10-13T04:46:44;2.90;;;2.10;;
6868;SDS011;3473;42.604;23.496;2022-10-13T04:48:15;4.00;;;1.67;;
6868;SDS011;3473;42.604;23.496;2022-10-13T04:49:46;4.10;;;2.40;;
6868;SDS011;3473;42.604;23.496;2022-10-13T04:51:19;5.23;;;2.20;;
6868;SDS011;3473;42.604;23.496;2022-10-13T04:52:51;5.17;;;2.53;;
6868;SDS011;3473;42.604;23.496;2022-10-13T04:54:22;4.60;;;2.60;;
6868;SDS011;3473;42.604;23.496;2022-10-13T04:55:53;4.27;;;1.70;;
6868;SDS011;3473;42.604;23.496;2022-10-13T04:57:24;4.20;;;2.03;;
6868;SDS011;3473;42.604;23.496;2022-10-13T04:58:55;5.20;;;2.00;;
6868;SDS011;3473;42.604;23.496;2022-10-13T05:00:26;5.17;;;2.37;;
6868;SDS011;3473;42.604;23.496;2022-10-13T05:01:58;6.80;;;2.20;;
6868;SDS011;3473;42.604;23.496;2022-10-13T05:03:28;4.77;;;2.33;;
6868;SDS011;3473;42.604;23.496;2022-10-13T05:05:00;2.97;;;2.27;;
6868;SDS011;3473;42.604;23.496;2022-10-13T05:06:35;3.60;;;2.20;;
6868;SDS011;3473;42.604;23.496;2022-10-13T05:08:06;3.63;;;1.80;;
6868;SDS011;3473;42.604;23.496;2022-10-13T05:09:37;4.10;;;2.03;;
6868;SDS011;3473;42.604;23.496;2022-10-13T05:11:08;7.47;;;2.27;;
6868;SDS011;3473;42.604;23.496;2022-10-13T05:12:40;4.40;;;2.23;;
6868;SDS011;3473;42.604;23.496;2022-10-13T05:14:11;3.93;;;1.90;;
6868;SDS011;3473;42.604;23.496;2022-10-13T05:15:43;3.73;;;2.63;;
6868;SDS011;3473;42.604;23.496;2022-10-13T05:17:14;4.53;;;2.70;;
6868;SDS011;3473;42.604;23.496;2022-10-13T05:18:46;3.83;;;2.17;;
6868;SDS011;3473;42.604;23.496;2022-10-13T05:20:18;5.93;;;2.27;;
6868;SDS011;3473;42.604;23.496;2022-10-13T05:21:50;3.07;;;1.87;;
6868;SDS011;3473;42.604;23.496;2022-10-13T05:23:22;5.20;;;2.37;;
6868;SDS011;3473;42.604;23.496;2022-10-13T05:24:54;7.33;;;2.93;;
6868;SDS011;3473;42.604;23.496;2022-10-13T05:26:26;9.33;;;3.43;;
6868;SDS011;3473;42.604;23.496;2022-10-13T05:27:58;7.70;;;3.57;;
6868;SDS011;3473;42.604;23.496;2022-10-13T05:29:29;4.53;;;2.97;;
6868;SDS011;3473;42.604;23.496;2022-10-13T05:31:07;7.23;;;3.00;;
6868;SDS011;3473;42.604;23.496;2022-10-13T05:32:39;6.07;;;2.70;;
6868;SDS011;3473;42.604;23.496;2022-10-13T05:34:10;7.37;;;3.23;;
6868;SDS011;3473;42.604;23.496;2022-10-13T05:35:42;6.47;;;2.50;;
6868;SDS011;3473;42.604;23.496;2022-10-13T05:37:15;5.17;;;2.80;;
6868;SDS011;3473;42.604;23.496;2022-10-13T05:38:48;6.83;;;3.33;;
6868;SDS011;3473;42.604;23.496;2022-10-13T05:40:20;6.27;;;2.60;;
6868;SDS011;3473;42.604;23.496;2022-10-13T05:41:52;6.20;;;3.47;;
6868;SDS011;3473;42.604;23.496;2022-10-13T05:43:24;4.83;;;2.83;;
6868;SDS011;3473;42.604;23.496;2022-10-13T05:44:55;8.37;;;3.37;;
6868;SDS011;3473;42.604;23.496;2022-10-13T05:46:27;4.50;;;2.90;;
6868;SDS011;3473;42.604;23.496;2022-10-13T05:47:58;7.37;;;3.07;;
6868;SDS011;3473;42.604;23.496;2022-10-13T05:49:30;6.50;;;3.07;;
6868;SDS011;3473;42.604;23.496;2022-10-13T05:51:02;7.57;;;2.90;;
6868;SDS011;3473;42.604;23.496;2022-10-13T05:52:36;3.80;;;2.00;;
6868;SDS011;3473;42.604;23.496;2022-10-13T05:54:08;4.50;;;2.10;;
6868;SDS011;3473;42.604;23.496;2022-10-13T05:55:40;5.70;;;2.77;;
6868;SDS011;3473;42.604;23.496;2022-10-13T05:57:13;4.27;;;2.17;;
6868;SDS011;3473;42.604;23.496;2022-10-13T05:58:46;5.60;;;2.50;;
6868;SDS011;3473;42.604;23.496;2022-10-13T06:00:18;5.20;;;2.30;;
6868;SDS011;3473;42.604;23.496;2022-10-13T06:01:49;4.00;;;2.23;;
6868;SDS011;3473;42.604;23.496;2022-10-13T06:03:21;6.33;;;2.53;;
6868;SDS011;3473;42.604;23.496;2022-10-13T06:04:53;4.30;;;2.70;;
6868;SDS011;3473;42.604;23.496;2022-10-13T06:06:27;5.40;;;2.73;;
6868;SDS011;3473;42.604;23.496;2022-10-13T06:08:00;4.10;;;2.70;;
6868;SDS011;3473;42.604;23.496;2022-10-13T06:09:32;4.37;;;2.70;;
6868;SDS011;3473;42.604;23.496;2022-10-13T06:11:04;5.20;;;2.57;;
6868;SDS011;3473;42.604;23.496;2022-10-13T06:12:37;6.07;;;2.50;;
6868;SDS011;3473;42.604;23.496;2022-10-13T06:14:08;7.20;;;2.63;;
6868;SDS011;3473;42.604;23.496;2022-10-13T06:15:40;4.87;;;2.90;;
6868;SDS011;3473;42.604;23.496;2022-10-13T06:17:11;5.00;;;2.17;;
6868;SDS011;3473;42.604;23.496;2022-10-13T06:18:43;6.23;;;2.63;;
6868;SDS011;3473;42.604;23.496;2022-10-13T06:20:14;3.57;;;2.47;;
6868;SDS011;3473;42.604;23.496;2022-10-13T06:21:46;4.80;;;2.47;;
6868;SDS011;3473;42.604;23.496;2022-10-13T06:23:18;4.50;;;2.73;;
6868;SDS011;3473;42.604;23.496;2022-10-13T06:24:49;7.60;;;3.23;;
6868;SDS011;3473;42.604;23.496;2022-10-13T06:26:21;7.60;;;3.43;;
6868;SDS011;3473;42.604;23.496;2022-10-13T06:27:52;4.23;;;2.57;;
6868;SDS011;3473;42.604;23.496;2022-10-13T06:29:24;4.83;;;3.07;;
6868;SDS011;3473;42.604;23.496;2022-10-13T06:30:55;4.40;;;2.83;;
6868;SDS011;3473;42.604;23.496;2022-10-13T06:32:27;7.10;;;3.17;;
6868;SDS011;3473;42.604;23.496;2022-10-13T06:33:58;4.27;;;2.40;;
6868;SDS011;3473;42.604;23.496;2022-10-13T06:35:30;5.50;;;2.77;;
6868;SDS011;3473;42.604;23.496;2022-10-13T06:37:02;3.60;;;2.20;;
6868;SDS011;3473;42.604;23.496;2022-10-13T06:38:35;5.53;;;2.97;;
6868;SDS011;3473;42.604;23.496;2022-10-13T06:40:07;5.07;;;2.90;;
6868;SDS011;3473;42.604;23.496;2022-10-13T06:41:38;5.03;;;2.63;;
6868;SDS011;3473;42.604;23.496;2022-10-13T06:43:10;4.80;;;2.27;;
6868;SDS011;3473;42.604;23.496;2022-10-13T06:44:41;5.10;;;2.73;;
6868;SDS011;3473;42.604;23.496;2022-10-13T06:46:13;5.70;;;2.70;;
6868;SDS011;3473;42.604;23.496;2022-10-13T06:47:44;5.23;;;2.80;;
6868;SDS011;3473;42.604;23.496;2022-10-13T06:49:16;6.77;;;2.93;;
6868;SDS011;3473;42.604;23.496;2022-10-13T06:50:47;5.13;;;3.10;;
6868;SDS011;3473;42.604;23.496;2022-10-13T06:52:19;6.17;;;2.83;;
6868;SDS011;3473;42.604;23.496;2022-10-13T06:53:53;3.63;;;2.13;;
6868;SDS011;3473;42.604;23.496;2022-10-13T06:55:25;4.07;;;2.90;;
6868;SDS011;3473;42.604;23.496;2022-10-13T06:56:57;4.70;;;2.97;;
6868;SDS011;3473;42.604;23.496;2022-10-13T06:58:28;3.70;;;2.53;;
6868;SDS011;3473;42.604;23.496;2022-10-13T07:00:00;4.17;;;2.93;;
6868;SDS011;3473;42.604;23.496;2022-10-13T07:01:31;5.47;;;3.10;;
6868;SDS011;3473;42.604;23.496;2022-10-13T07:03:03;5.67;;;2.73;;
6868;SDS011;3473;42.604;23.496;2022-10-13T07:04:34;5.10;;;2.37;;
6868;SDS011;3473;42.604;23.496;2022-10-13T07:06:06;6.13;;;3.00;;
6868;SDS011;3473;42.604;23.496;2022-10-13T07:07:38;4.60;;;2.83;;
6868;SDS011;3473;42.604;23.496;2022-10-13T07:09:11;5.53;;;2.90;;
6868;SDS011;3473;42.604;23.496;2022-10-13T07:10:42;6.47;;;3.10;;
6868;SDS011;3473;42.604;23.496;2022-10-13T07:12:14;4.73;;;2.10;;
6868;SDS011;3473;42.604;23.496;2022-10-13T07:13:45;5.53;;;2.70;;
6868;SDS011;3473;42.604;23.496;2022-10-13T07:15:17;5.13;;;2.83;;
6868;SDS011;3473;42.604;23.496;2022-10-13T07:16:48;5.73;;;2.97;;
6868;SDS011;3473;42.604;23.496;2022-10-13T07:18:20;4.33;;;2.37;;
6868;SDS011;3473;42.604;23.496;2022-10-13T07:19:51;4.43;;;2.93;;
6868;SDS011;3473;42.604;23.496;2022-10-13T07:21:23;5.30;;;2.80;;
6868;SDS011;3473;42.604;23.496;2022-10-13T07:22:54;4.87;;;2.87;;
6868;SDS011;3473;42.604;23.496;2022-10-13T07:24:27;7.17;;;3.00;;
6868;SDS011;3473;42.604;23.496;2022-10-13T07:25:59;4.67;;;2.87;;
6868;SDS011;3473;42.604;23.496;2022-10-13T07:27:30;4.37;;;2.93;;
6868;SDS011;3473;42.604;23.496;2022-10-13T07:29:02;5.70;;;3.30;;
6868;SDS011;3473;42.604;23.496;2022-10-13T07:30:33;4.57;;;2.83;;
6868;SDS011;3473;42.604;23.496;2022-10-13T07:32:05;4.43;;;2.77;;
6868;SDS011;3473;42.604;23.496;2022-10-13T07:33:37;4.00;;;2.63;;
6868;SDS011;3473;42.604;23.496;2022-10-13T07:35:09;3.40;;;1.97;;
6868;SDS011;3473;42.604;23.496;2022-10-13T07:36:40;4.60;;;2.60;;
6868;SDS011;3473;42.604;23.496;2022-10-13T07:38:12;4.77;;;2.83;;
6868;SDS011;3473;42.604;23.496;2022-10-13T07:39:44;4.10;;;2.70;;
6868;SDS011;3473;42.604;23.496;2022-10-13T07:41:16;3.77;;;2.27;;
6868;SDS011;3473;42.604;23.496;2022-10-13T07:42:47;5.60;;;3.13;;
6868;SDS011;3473;42.604;23.496;2022-10-13T07:44:19;4.70;;;2.83;;
6868;SDS011;3473;42.604;23.496;2022-10-13T07:45:52;4.60;;;2.70;;
6868;SDS011;3473;42.604;23.496;2022-10-13T07:47:24;3.87;;;2.17;;
6868;SDS011;3473;42.604;23.496;2022-10-13T07:48:55;5.20;;;2.90;;
6868;SDS011;3473;42.604;23.496;2022-10-13T07:50:27;3.33;;;2.40;;
6868;SDS011;3473;42.604;23.496;2022-10-13T07:51:58;4.03;;;2.27;;
6868;SDS011;3473;42.604;23.496;2022-10-13T07:53:30;6.40;;;3.07;;
6868;SDS011;3473;42.604;23.496;2022-10-13T07:55:03;4.67;;;2.80;;
6868;SDS011;3473;42.604;23.496;2022-10-13T07:56:35;5.53;;;2.90;;
6868;SDS011;3473;42.604;23.496;2022-10-13T07:58:06;6.90;;;3.00;;
6868;SDS011;3473;42.604;23.496;2022-10-13T07:59:38;3.50;;;2.57;;
6868;SDS011;3473;42.604;23.496;2022-10-13T08:01:10;5.13;;;3.00;;
6868;SDS011;3473;42.604;23.496;2022-10-13T08:02:41;4.60;;;2.63;;
6868;SDS011;3473;42.604;23.496;2022-10-13T08:04:13;2.80;;;2.17;;
6868;SDS011;3473;42.604;23.496;2022-10-13T08:05:44;4.90;;;2.77;;
6868;SDS011;3473;42.604;23.496;2022-10-13T08:07:16;4.23;;;2.97;;
6868;SDS011;3473;42.604;23.496;2022-10-13T08:08:48;5.43;;;3.13;;
6868;SDS011;3473;42.604;23.496;2022-10-13T08:10:21;3.53;;;2.47;;
6868;SDS011;3473;42.604;23.496;2022-10-13T08:11:53;3.97;;;2.63;;
6868;SDS011;3473;42.604;23.496;2022-10-13T08:13:24;4.80;;;3.13;;
6868;SDS011;3473;42.604;23.496;2022-10-13T08:14:58;5.37;;;3.27;;
6868;SDS011;3473;42.604;23.496;2022-10-13T08:16:30;5.53;;;2.97;;
6868;SDS011;3473;42.604;23.496;2022-10-13T08:18:02;5.40;;;2.93;;
6868;SDS011;3473;42.604;23.496;2022-10-13T08:19:33;6.37;;;2.87;;
6868;SDS011;3473;42.604;23.496;2022-10-13T08:21:05;6.50;;;2.83;;
6868;SDS011;3473;42.604;23.496;2022-10-13T08:22:36;6.90;;;3.13;;
6868;SDS011;3473;42.604;23.496;2022-10-13T08:24:08;3.57;;;2.53;;
6868;SDS011;3473;42.604;23.496;2022-10-13T08:25:43;5.23;;;2.80;;
6868;SDS011;3473;42.604;23.496;2022-10-13T08:27:15;4.40;;;2.30;;
6868;SDS011;3473;42.604;23.496;2022-10-13T08:28:47;5.13;;;2.77;;
6868;SDS011;3473;42.604;23.496;2022-10-13T08:30:19;5.40;;;2.87;;
6868;SDS011;3473;42.604;23.496;2022-10-13T08:31:51;5.97;;;3.10;;
6868;SDS011;3473;42.604;23.496;2022-10-13T08:33:22;3.97;;;2.60;;
6868;SDS011;3473;42.604;23.496;2022-10-13T08:34:54;6.10;;;2.67;;
6868;SDS011;3473;42.604;23.496;2022-10-13T08:36:25;4.73;;;2.70;;
6868;SDS011;3473;42.604;23.496;2022-10-13T08:37:57;4.60;;;2.70;;
6868;SDS011;3473;42.604;23.496;2022-10-13T08:39:29;4.50;;;2.53;;
6868;SDS011;3473;42.604;23.496;2022-10-13T08:41:02;4.03;;;2.63;;
6868;SDS011;3473;42.604;23.496;2022-10-13T08:42:41;4.90;;;2.67;;
6868;SDS011;3473;42.604;23.496;2022-10-13T08:44:16;6.03;;;3.13;;
6868;SDS011;3473;42.604;23.496;2022-10-13T08:45:50;4.17;;;2.77;;
6868;SDS011;3473;42.604;23.496;2022-10-13T08:47:33;3.83;;;2.20;;
6868;SDS011;3473;42.604;23.496;2022-10-13T08:49:05;4.20;;;2.23;;
6868;SDS011;3473;42.604;23.496;2022-10-13T08:50:38;5.30;;;2.87;;
6868;SDS011;3473;42.604;23.496;2022-10-13T08:52:12;4.30;;;2.40;;
6868;SDS011;3473;42.604;23.496;2022-10-13T08:53:47;3.67;;;2.33;;
6868;SDS011;3473;42.604;23.496;2022-10-13T08:55:23;4.93;;;2.97;;
6868;SDS011;3473;42.604;23.496;2022-10-13T08:56:57;3.00;;;2.13;;
6868;SDS011;3473;42.604;23.496;2022-10-13T08:58:29;5.83;;;3.17;;
6868;SDS011;3473;42.604;23.496;2022-10-13T09:00:01;4.40;;;2.73;;
6868;SDS011;3473;42.604;23.496;2022-10-13T09:01:34;4.67;;;2.47;;
6868;SDS011;3473;42.604;23.496;2022-10-13T09:03:10;4.00;;;2.43;;
6868;SDS011;3473;42.604;23.496;2022-10-13T09:04:47;5.07;;;2.70;;
6868;SDS011;3473;42.604;23.496;2022-10-13T09:06:21;3.77;;;2.30;;
6868;SDS011;3473;42.604;23.496;2022-10-13T09:07:57;3.60;;;2.27;;
6868;SDS011;3473;42.604;23.496;2022-10-13T09:09:29;5.63;;;2.20;;
6868;SDS011;3473;42.604;23.496;2022-10-13T09:11:01;3.43;;;2.63;;
6868;SDS011;3473;42.604;23.496;2022-10-13T09:12:34;3.90;;;2.53;;
6868;SDS011;3473;42.604;23.496;2022-10-13T09:14:07;3.43;;;2.03;;
6868;SDS011;3473;42.604;23.496;2022-10-13T09:15:41;4.43;;;2.53;;
6868;SDS011;3473;42.604;23.496;2022-10-13T09:17:14;3.93;;;2.27;;
6868;SDS011;3473;42.604;23.496;2022-10-13T09:18:46;4.73;;;2.60;;
6868;SDS011;3473;42.604;23.496;2022-10-13T09:20:18;3.87;;;2.10;;
6868;SDS011;3473;42.604;23.496;2022-10-13T09:21:50;3.07;;;2.23;;
6868;SDS011;3473;42.604;23.496;2022-10-13T09:23:22;3.20;;;2.10;;
6868;SDS011;3473;42.604;23.496;2022-10-13T09:25:01;4.90;;;2.50;;
6868;SDS011;3473;42.604;23.496;2022-10-13T09:26:35;4.90;;;2.83;;
6868;SDS011;3473;42.604;23.496;2022-10-13T09:28:13;4.33;;;2.40;;
6868;SDS011;3473;42.604;23.496;2022-10-13T09:29:45;4.37;;;2.67;;
6868;SDS011;3473;42.604;23.496;2022-10-13T09:31:18;3.03;;;2.13;;